PWSweather.com
Personal Weather Stations
Station Observations
KCTHAMDEN
Dunbar Hill, Hamden, CT 06514

Dunbar HillHamden, CT 06514

Lat: 41.365437, Lon: -72.956532

Elevation: 200

Station Type: Davis Vantage Pro2+

Latest ConditionsUpdated 2:45:01 PM EST Sunday, Nov 19, 2017
Currently Today's Max Today's Min Today's Average
Temperature 47.0°F8.3°C 57.1°F13.9°C 47.0°F8.3°C 53.7°F12.1°C
Dew Point 31.7°F-0.2°C 56.0°F13.3°C 31.7°F-0.2°C 48.0°F8.9°C
Winds 4.6 mph WSW7.4 kmh WSW 10.2 mph NE16.4 kmh NE - 4.5 mph 7.2 kmh
Wind Gusts 9.0 mph14.5 kmh 23.0 mph37.0 kmh - -
Humidity 55% 97% 54% 83%
Pressure 29.48 in998.3 mb 29.48 in998.3 mb 29.20 in988.8 mb -
Precipitation - 0.22 in5.6 mm - -
Hour Temp Dew Point Humidity Winds Wind Gusts Pressure Precip Precip Rate Daily Precip Total
02:45 PM 47.0°F8.3°C 31.7°F-0.2°C 55% 4.6 mph WSW7.4 kmh WSW 9.0 mph14.5 kmh 29.48 in998.3 mb - 0.00 in0.0 mm 0.22 in5.6 mm
02:30 PM 47.4°F8.6°C 32.0°F0.0°C 55% 3.6 mph W5.8 kmh W 16.0 mph25.7 kmh 29.46 in997.6 mb - 0.00 in0.0 mm 0.22 in5.6 mm
02:15 PM 47.7°F8.7°C 32.3°F0.2°C 55% 6.1 mph ESE9.8 kmh ESE 20.0 mph32.2 kmh 29.45 in997.3 mb - 0.00 in0.0 mm 0.22 in5.6 mm
02:00 PM 48.3°F9.1°C 33.3°F0.7°C 56% 7.0 mph SW11.3 kmh SW 14.0 mph22.5 kmh 29.45 in997.3 mb - 0.00 in0.0 mm 0.22 in5.6 mm
01:45 PM 48.6°F9.2°C 33.1°F0.6°C 55% 7.6 mph NW12.2 kmh NW 13.0 mph20.9 kmh 29.44 in997.0 mb - 0.00 in0.0 mm 0.22 in5.6 mm
01:30 PM 48.7°F9.3°C 34.1°F1.2°C 57% 4.3 mph SW6.9 kmh SW 12.0 mph19.3 kmh 29.43 in996.6 mb - 0.00 in0.0 mm 0.22 in5.6 mm
01:15 PM 49.6°F9.8°C 33.6°F0.9°C 54% 6.8 mph SW10.9 kmh SW 13.0 mph20.9 kmh 29.42 in996.3 mb - 0.00 in0.0 mm 0.22 in5.6 mm
01:00 PM 49.4°F9.7°C 34.3°F1.3°C 56% 3.2 mph WSW5.1 kmh WSW 6.0 mph9.7 kmh 29.41 in995.9 mb - 0.00 in0.0 mm 0.22 in5.6 mm
12:45 PM 49.7°F9.8°C 34.2°F1.2°C 55% 9.7 mph WSW15.6 kmh WSW 15.0 mph24.1 kmh 29.41 in995.9 mb - 0.00 in0.0 mm 0.22 in5.6 mm
12:30 PM 49.6°F9.8°C 34.5°F1.4°C 56% 6.7 mph NE10.8 kmh NE 12.0 mph19.3 kmh 29.40 in995.6 mb - 0.00 in0.0 mm 0.22 in5.6 mm
12:15 PM 50.6°F10.3°C 35.0°F1.7°C 55% 8.5 mph NNE13.7 kmh NNE 19.0 mph30.6 kmh 29.38 in994.9 mb - 0.00 in0.0 mm 0.22 in5.6 mm
12:00 PM 50.5°F10.3°C 35.8°F2.1°C 57% 2.7 mph NW4.3 kmh NW 11.0 mph17.7 kmh 29.37 in994.6 mb - 0.00 in0.0 mm 0.22 in5.6 mm
11:45 AM 50.4°F10.2°C 35.7°F2.1°C 57% 9.9 mph N15.9 kmh N 16.0 mph25.7 kmh 29.36 in994.2 mb - 0.00 in0.0 mm 0.22 in5.6 mm
11:30 AM 51.4°F10.8°C 36.2°F2.3°C 56% 10.2 mph NE16.4 kmh NE 17.0 mph27.4 kmh 29.36 in994.2 mb - 0.00 in0.0 mm 0.22 in5.6 mm
11:15 AM 52.0°F11.1°C 38.1°F3.4°C 59% 6.9 mph WSW11.1 kmh WSW 6.0 mph9.7 kmh 29.34 in993.6 mb - 0.00 in0.0 mm 0.22 in5.6 mm
11:00 AM 52.5°F11.4°C 39.0°F3.9°C 60% 7.8 mph WSW12.6 kmh WSW 13.0 mph20.9 kmh 29.34 in993.6 mb - 0.00 in0.0 mm 0.22 in5.6 mm
10:45 AM 52.8°F11.6°C 40.1°F4.5°C 62% 6.3 mph SW10.1 kmh SW 11.0 mph17.7 kmh 29.32 in992.9 mb - 0.00 in0.0 mm 0.22 in5.6 mm
10:30 AM 52.3°F11.3°C 40.1°F4.5°C 63% 5.7 mph E9.2 kmh E 9.0 mph14.5 kmh 29.30 in992.2 mb - 0.00 in0.0 mm 0.22 in5.6 mm
10:15 AM 52.8°F11.6°C 41.4°F5.2°C 65% 9.3 mph S15.0 kmh S 15.0 mph24.1 kmh 29.30 in992.2 mb - 0.00 in0.0 mm 0.22 in5.6 mm
10:00 AM 53.6°F12.0°C 45.1°F7.3°C 73% 5.8 mph SE9.3 kmh SE 9.0 mph14.5 kmh 29.28 in991.5 mb - 0.00 in0.0 mm 0.22 in5.6 mm
09:45 AM 55.5°F13.1°C 47.3°F8.5°C 74% 9.2 mph SW14.8 kmh SW 23.0 mph37.0 kmh 29.25 in990.5 mb - 0.00 in0.0 mm 0.22 in5.6 mm
09:30 AM 56.0°F13.3°C 51.9°F11.1°C 86% 6.4 mph S10.3 kmh S 14.0 mph22.5 kmh 29.22 in989.5 mb - 0.00 in0.0 mm 0.22 in5.6 mm
09:15 AM 55.8°F13.2°C 54.1°F12.3°C 94% 6.0 mph S9.7 kmh S 17.0 mph27.4 kmh 29.21 in989.2 mb - 0.00 in0.0 mm 0.22 in5.6 mm
09:00 AM 56.4°F13.6°C 55.0°F12.8°C 95% 2.3 mph NNE3.7 kmh NNE 11.0 mph17.7 kmh 29.21 in989.2 mb - 0.00 in0.0 mm 0.22 in5.6 mm
08:45 AM 56.3°F13.5°C 54.9°F12.7°C 95% 1.5 mph SE2.4 kmh SE 4.0 mph6.4 kmh 29.20 in988.8 mb - 0.00 in0.0 mm 0.22 in5.6 mm
08:30 AM 56.5°F13.6°C 55.1°F12.8°C 95% 1.8 mph SE2.9 kmh SE 6.0 mph9.7 kmh 29.20 in988.8 mb - 0.03 in0.8 mm 0.22 in5.6 mm
08:15 AM 56.8°F13.8°C 55.7°F13.2°C 96% 3.6 mph SE5.8 kmh SE 5.0 mph8.0 kmh 29.20 in988.8 mb - 0.00 in0.0 mm 0.19 in4.8 mm
08:00 AM 57.1°F13.9°C 56.0°F13.3°C 96% 2.4 mph SSE3.9 kmh SSE 4.0 mph6.4 kmh 29.20 in988.8 mb - 0.00 in0.0 mm 0.19 in4.8 mm
07:45 AM 57.1°F13.9°C 56.0°F13.3°C 96% 5.5 mph SSW8.9 kmh SSW 12.0 mph19.3 kmh 29.21 in989.2 mb - 0.01 in0.3 mm 0.19 in4.8 mm
07:30 AM 57.1°F13.9°C 56.0°F13.3°C 96% 4.7 mph S7.6 kmh S 15.0 mph24.1 kmh 29.21 in989.2 mb - 0.00 in0.0 mm 0.18 in4.6 mm
07:15 AM 57.1°F13.9°C 56.0°F13.3°C 96% 3.3 mph SSE5.3 kmh SSE 5.0 mph8.0 kmh 29.21 in989.2 mb - 0.01 in0.3 mm 0.18 in4.6 mm
07:00 AM 57.0°F13.9°C 55.9°F13.3°C 96% 4.7 mph SSE7.6 kmh SSE 14.0 mph22.5 kmh 29.20 in988.8 mb - 0.01 in0.3 mm 0.17 in4.3 mm
06:45 AM 56.9°F13.8°C 55.8°F13.2°C 96% 3.7 mph SSW6.0 kmh SSW 6.0 mph9.7 kmh 29.22 in989.5 mb - 0.00 in0.0 mm 0.16 in4.1 mm
06:30 AM 56.9°F13.8°C 55.8°F13.2°C 96% 2.1 mph SSE3.4 kmh SSE 2.0 mph3.2 kmh 29.22 in989.5 mb - 0.00 in0.0 mm 0.16 in4.1 mm
06:15 AM 56.8°F13.8°C 55.7°F13.2°C 96% 3.6 mph SE5.8 kmh SE 11.0 mph17.7 kmh 29.23 in989.8 mb - 0.01 in0.3 mm 0.16 in4.1 mm
06:00 AM 56.8°F13.8°C 55.7°F13.2°C 96% 2.8 mph SSW4.5 kmh SSW 6.0 mph9.7 kmh 29.23 in989.8 mb - 0.02 in0.5 mm 0.15 in3.8 mm
05:45 AM 56.6°F13.7°C 55.5°F13.1°C 96% 5.8 mph S9.3 kmh S 11.0 mph17.7 kmh 29.25 in990.5 mb - 0.02 in0.5 mm 0.13 in3.3 mm
05:30 AM 56.4°F13.6°C 55.3°F12.9°C 96% 3.4 mph SSE5.5 kmh SSE 8.0 mph12.9 kmh 29.24 in990.2 mb - 0.01 in0.3 mm 0.11 in2.8 mm
05:15 AM 56.4°F13.6°C 55.0°F12.8°C 95% 3.0 mph S4.8 kmh S 3.0 mph4.8 kmh 29.25 in990.5 mb - 0.01 in0.3 mm 0.10 in2.5 mm
05:00 AM 56.3°F13.5°C 54.9°F12.7°C 95% 3.1 mph S5.0 kmh S 4.0 mph6.4 kmh 29.25 in990.5 mb - 0.01 in0.3 mm 0.09 in2.3 mm
04:45 AM 56.3°F13.5°C 54.9°F12.7°C 95% 2.3 mph SE3.7 kmh SE 4.0 mph6.4 kmh 29.27 in991.2 mb - 0.02 in0.5 mm 0.08 in2.0 mm
04:30 AM 56.2°F13.4°C 54.8°F12.7°C 95% 3.6 mph S5.8 kmh S 8.0 mph12.9 kmh 29.28 in991.5 mb - 0.00 in0.0 mm 0.06 in1.5 mm
04:15 AM 56.2°F13.4°C 54.8°F12.7°C 95% 1.8 mph SE2.9 kmh SE 3.0 mph4.8 kmh 29.28 in991.5 mb - 0.00 in0.0 mm 0.06 in1.5 mm
04:00 AM 56.2°F13.4°C 54.8°F12.7°C 95% 2.7 mph SSE4.3 kmh SSE 2.0 mph3.2 kmh 29.28 in991.5 mb - 0.01 in0.3 mm 0.06 in1.5 mm
03:45 AM 56.1°F13.4°C 54.7°F12.6°C 95% 4.5 mph SE7.2 kmh SE 7.0 mph11.3 kmh 29.29 in991.9 mb - 0.00 in0.0 mm 0.05 in1.3 mm
03:30 AM 56.1°F13.4°C 54.4°F12.4°C 94% 1.8 mph S2.9 kmh S 11.0 mph17.7 kmh 29.31 in992.6 mb - 0.02 in0.5 mm 0.05 in1.3 mm
03:15 AM 56.1°F13.4°C 54.4°F12.4°C 94% 4.7 mph SSE7.6 kmh SSE 11.0 mph17.7 kmh 29.31 in992.6 mb - 0.01 in0.3 mm 0.03 in0.8 mm
03:00 AM 56.0°F13.3°C 54.3°F12.4°C 94% 4.3 mph S6.9 kmh S 12.0 mph19.3 kmh 29.32 in992.9 mb - 0.01 in0.3 mm 0.02 in0.5 mm
02:45 AM 55.8°F13.2°C 54.4°F12.4°C 95% 2.8 mph SSE4.5 kmh SSE 5.0 mph8.0 kmh 29.33 in993.2 mb - 0.01 in0.3 mm 0.01 in0.3 mm
02:30 AM 55.6°F13.1°C 54.2°F12.3°C 95% 1.7 mph SSE2.7 kmh SSE 5.0 mph8.0 kmh 29.34 in993.6 mb - 0.00 in0.0 mm 0.00 in0.0 mm
02:15 AM 55.3°F12.9°C 54.2°F12.3°C 96% 3.0 mph S4.8 kmh S 11.0 mph17.7 kmh 29.35 in993.9 mb - 0.00 in0.0 mm 0.00 in0.0 mm
02:00 AM 55.0°F12.8°C 54.2°F12.3°C 97% 4.0 mph SE6.4 kmh SE 8.0 mph12.9 kmh 29.36 in994.2 mb - 0.00 in0.0 mm 0.00 in0.0 mm
01:45 AM 54.9°F12.7°C 54.1°F12.3°C 97% 3.0 mph S4.8 kmh S 6.0 mph9.7 kmh 29.37 in994.6 mb - 0.00 in0.0 mm 0.00 in0.0 mm
01:30 AM 54.7°F12.6°C 53.9°F12.2°C 97% 3.6 mph SE5.8 kmh SE 14.0 mph22.5 kmh 29.37 in994.6 mb - 0.00 in0.0 mm 0.00 in0.0 mm
01:15 AM 54.4°F12.4°C 53.6°F12.0°C 97% 3.4 mph S5.5 kmh S 8.0 mph12.9 kmh 29.38 in994.9 mb - 0.00 in0.0 mm 0.00 in0.0 mm
01:00 AM 53.7°F12.1°C 52.9°F11.6°C 97% 2.4 mph S3.9 kmh S 4.0 mph6.4 kmh 29.39 in995.3 mb - 0.00 in0.0 mm 0.00 in0.0 mm
12:45 AM 51.8°F11.0°C 51.0°F10.6°C 97% 3.7 mph SSE6.0 kmh SSE 4.0 mph6.4 kmh 29.40 in995.6 mb - 0.00 in0.0 mm 0.00 in0.0 mm
12:30 AM 48.7°F9.3°C 47.6°F8.7°C 96% 1.0 mph SSE1.6 kmh SSE 4.0 mph6.4 kmh 29.42 in996.3 mb - 0.00 in0.0 mm 0.00 in0.0 mm
12:15 AM 48.1°F8.9°C 47.0°F8.3°C 96% 1.0 mph SSE1.6 kmh SSE 2.0 mph3.2 kmh 29.43 in996.6 mb - 0.00 in0.0 mm 0.00 in0.0 mm
12:00 AM 48.1°F8.9°C 47.0°F8.3°C 96% 0.1 mph SSE0.2 kmh SSE 2.0 mph3.2 kmh 29.45 in997.3 mb - 0.00 in0.0 mm 0.00 in0.0 mm